sensor_id;sensor_type;location;lat;lon;timestamp;temperature;humidity
10282;DHT22;5186;59.472;18.048;2022-10-16T00:01:10;14.30;99.90
10282;DHT22;5186;59.472;18.048;2022-10-16T00:03:37;14.30;99.90
10282;DHT22;5186;59.472;18.048;2022-10-16T00:06:03;14.30;99.90
10282;DHT22;5186;59.472;18.048;2022-10-16T00:08:30;14.30;99.90
10282;DHT22;5186;59.472;18.048;2022-10-16T00:11:07;14.30;99.90
10282;DHT22;5186;59.472;18.048;2022-10-16T00:13:34;14.30;99.90
10282;DHT22;5186;59.472;18.048;2022-10-16T00:16:00;14.30;99.90
10282;DHT22;5186;59.472;18.048;2022-10-16T00:18:28;14.30;99.90
10282;DHT22;5186;59.472;18.048;2022-10-16T00:20:54;14.30;99.90
10282;DHT22;5186;59.472;18.048;2022-10-16T00:23:20;14.30;99.90
10282;DHT22;5186;59.472;18.048;2022-10-16T00:25:55;14.20;99.90
10282;DHT22;5186;59.472;18.048;2022-10-16T00:28:21;14.20;99.90
10282;DHT22;5186;59.472;18.048;2022-10-16T00:30:46;14.20;99.90
10282;DHT22;5186;59.472;18.048;2022-10-16T00:33:12;14.30;99.90
10282;DHT22;5186;59.472;18.048;2022-10-16T00:35:37;14.30;99.90
10282;DHT22;5186;59.472;18.048;2022-10-16T00:38:03;14.20;99.90
10282;DHT22;5186;59.472;18.048;2022-10-16T00:40:28;14.20;99.90
10282;DHT22;5186;59.472;18.048;2022-10-16T00:42:54;14.20;99.90
10282;DHT22;5186;59.472;18.048;2022-10-16T00:45:20;14.20;99.90
10282;DHT22;5186;59.472;18.048;2022-10-16T00:47:47;14.20;99.90
10282;DHT22;5186;59.472;18.048;2022-10-16T00:50:32;14.20;99.90
10282;DHT22;5186;59.472;18.048;2022-10-16T00:53:00;14.20;99.90
10282;DHT22;5186;59.472;18.048;2022-10-16T00:55:27;14.10;99.90
10282;DHT22;5186;59.472;18.048;2022-10-16T00:57:54;14.10;99.90
10282;DHT22;5186;59.472;18.048;2022-10-16T01:00:23;14.10;99.90
10282;DHT22;5186;59.472;18.048;2022-10-16T01:02:53;14.00;99.90
10282;DHT22;5186;59.472;18.048;2022-10-16T01:05:24;14.00;99.90
10282;DHT22;5186;59.472;18.048;2022-10-16T01:08:08;14.00;99.90
10282;DHT22;5186;59.472;18.048;2022-10-16T01:10:40;14.00;99.90
10282;DHT22;5186;59.472;18.048;2022-10-16T01:13:12;14.00;99.90
10282;DHT22;5186;59.472;18.048;2022-10-16T01:16:05;14.00;99.90
10282;DHT22;5186;59.472;18.048;2022-10-16T01:28:56;13.90;99.90
10282;DHT22;5186;59.472;18.048;2022-10-16T01:31:27;13.90;99.90
10282;DHT22;5186;59.472;18.048;2022-10-16T01:34:16;13.90;99.90
10282;DHT22;5186;59.472;18.048;2022-10-16T01:36:53;13.80;99.90
10282;DHT22;5186;59.472;18.048;2022-10-16T01:39:24;13.80;99.90
10282;DHT22;5186;59.472;18.048;2022-10-16T01:42:12;13.80;99.90
10282;DHT22;5186;59.472;18.048;2022-10-16T01:44:39;13.70;99.90
10282;DHT22;5186;59.472;18.048;2022-10-16T01:47:08;13.70;99.90
10282;DHT22;5186;59.472;18.048;2022-10-16T01:49:36;13.70;99.90
10282;DHT22;5186;59.472;18.048;2022-10-16T01:52:07;13.70;99.90
10282;DHT22;5186;59.472;18.048;2022-10-16T01:54:36;13.70;99.90
10282;DHT22;5186;59.472;18.048;2022-10-16T01:57:04;13.70;99.90
10282;DHT22;5186;59.472;18.048;2022-10-16T01:59:34;13.70;99.90
10282;DHT22;5186;59.472;18.048;2022-10-16T02:02:05;13.60;99.90
10282;DHT22;5186;59.472;18.048;2022-10-16T02:05:30;13.60;99.90
10282;DHT22;5186;59.472;18.048;2022-10-16T02:07:54;13.70;99.90
10282;DHT22;5186;59.472;18.048;2022-10-16T02:10:20;13.70;99.90
10282;DHT22;5186;59.472;18.048;2022-10-16T02:12:53;13.70;99.90
10282;DHT22;5186;59.472;18.048;2022-10-16T02:15:21;13.70;99.90
10282;DHT22;5186;59.472;18.048;2022-10-16T02:17:47;13.70;99.90
10282;DHT22;5186;59.472;18.048;2022-10-16T02:20:12;13.70;99.90
10282;DHT22;5186;59.472;18.048;2022-10-16T02:22:45;13.70;99.90
10282;DHT22;5186;59.472;18.048;2022-10-16T02:25:25;13.80;99.90
10282;DHT22;5186;59.472;18.048;2022-10-16T02:28:04;13.80;99.90
10282;DHT22;5186;59.472;18.048;2022-10-16T02:30:49;13.70;99.90
10282;DHT22;5186;59.472;18.048;2022-10-16T02:33:17;13.70;99.90
10282;DHT22;5186;59.472;18.048;2022-10-16T02:35:46;13.70;99.90
10282;DHT22;5186;59.472;18.048;2022-10-16T02:38:14;13.70;99.90
10282;DHT22;5186;59.472;18.048;2022-10-16T02:40:41;13.70;99.90
10282;DHT22;5186;59.472;18.048;2022-10-16T02:43:08;13.70;99.90
10282;DHT22;5186;59.472;18.048;2022-10-16T02:45:35;13.70;99.90
10282;DHT22;5186;59.472;18.048;2022-10-16T02:48:00;13.70;99.90
10282;DHT22;5186;59.472;18.048;2022-10-16T02:50:26;13.70;99.90
10282;DHT22;5186;59.472;18.048;2022-10-16T02:52:52;13.70;99.90
10282;DHT22;5186;59.472;18.048;2022-10-16T02:55:18;13.70;99.90
10282;DHT22;5186;59.472;18.048;2022-10-16T02:57:43;13.70;99.90
10282;DHT22;5186;59.472;18.048;2022-10-16T03:00:10;13.60;99.90
10282;DHT22;5186;59.472;18.048;2022-10-16T03:02:37;13.70;99.90
10282;DHT22;5186;59.472;18.048;2022-10-16T03:05:02;13.70;99.90
10282;DHT22;5186;59.472;18.048;2022-10-16T03:07:28;13.70;99.90
10282;DHT22;5186;59.472;18.048;2022-10-16T03:09:53;13.70;99.90
10282;DHT22;5186;59.472;18.048;2022-10-16T03:12:21;13.70;99.90
10282;DHT22;5186;59.472;18.048;2022-10-16T03:14:46;13.60;99.90
10282;DHT22;5186;59.472;18.048;2022-10-16T03:17:12;13.70;99.90
10282;DHT22;5186;59.472;18.048;2022-10-16T03:19:38;13.70;99.90
10282;DHT22;5186;59.472;18.048;2022-10-16T03:22:04;13.70;99.90
10282;DHT22;5186;59.472;18.048;2022-10-16T03:24:29;13.70;99.90
10282;DHT22;5186;59.472;18.048;2022-10-16T03:26:55;13.80;99.90
10282;DHT22;5186;59.472;18.048;2022-10-16T03:29:21;13.80;99.90
10282;DHT22;5186;59.472;18.048;2022-10-16T03:31:46;13.70;99.90
10282;DHT22;5186;59.472;18.048;2022-10-16T03:34:13;13.70;99.90
10282;DHT22;5186;59.472;18.048;2022-10-16T03:36:39;13.70;99.90
10282;DHT22;5186;59.472;18.048;2022-10-16T03:39:05;13.70;99.90
10282;DHT22;5186;59.472;18.048;2022-10-16T03:41:30;13.70;99.90
10282;DHT22;5186;59.472;18.048;2022-10-16T03:43:56;13.70;99.90
10282;DHT22;5186;59.472;18.048;2022-10-16T03:46:21;13.70;99.90
10282;DHT22;5186;59.472;18.048;2022-10-16T03:48:47;13.70;99.90
10282;DHT22;5186;59.472;18.048;2022-10-16T03:51:13;13.70;99.90
10282;DHT22;5186;59.472;18.048;2022-10-16T03:53:38;13.70;99.90
10282;DHT22;5186;59.472;18.048;2022-10-16T03:56:04;13.70;99.90
10282;DHT22;5186;59.472;18.048;2022-10-16T03:58:30;13.60;99.90
10282;DHT22;5186;59.472;18.048;2022-10-16T04:00:55;13.70;99.90
10282;DHT22;5186;59.472;18.048;2022-10-16T04:03:21;13.60;99.90
10282;DHT22;5186;59.472;18.048;2022-10-16T04:05:46;13.60;99.90
10282;DHT22;5186;59.472;18.048;2022-10-16T04:08:12;13.60;99.90
10282;DHT22;5186;59.472;18.048;2022-10-16T04:10:38;13.60;99.90
10282;DHT22;5186;59.472;18.048;2022-10-16T04:13:03;13.60;99.90
10282;DHT22;5186;59.472;18.048;2022-10-16T04:15:29;13.60;99.90
10282;DHT22;5186;59.472;18.048;2022-10-16T04:17:54;13.60;99.90
10282;DHT22;5186;59.472;18.048;2022-10-16T04:20:20;13.60;99.90
10282;DHT22;5186;59.472;18.048;2022-10-16T04:22:46;13.60;99.90
10282;DHT22;5186;59.472;18.048;2022-10-16T04:25:11;13.70;99.90
10282;DHT22;5186;59.472;18.048;2022-10-16T04:27:37;13.60;99.90
10282;DHT22;5186;59.472;18.048;2022-10-16T04:30:03;13.60;99.90
10282;DHT22;5186;59.472;18.048;2022-10-16T04:32:29;13.60;99.90
10282;DHT22;5186;59.472;18.048;2022-10-16T04:34:55;13.60;99.90
10282;DHT22;5186;59.472;18.048;2022-10-16T04:37:27;13.60;99.90
10282;DHT22;5186;59.472;18.048;2022-10-16T04:39:53;13.60;99.90
10282;DHT22;5186;59.472;18.048;2022-10-16T04:42:20;13.50;99.90
10282;DHT22;5186;59.472;18.048;2022-10-16T04:44:46;13.50;99.90
10282;DHT22;5186;59.472;18.048;2022-10-16T04:47:12;13.50;99.90
10282;DHT22;5186;59.472;18.048;2022-10-16T04:49:37;13.50;99.90
10282;DHT22;5186;59.472;18.048;2022-10-16T04:52:03;13.50;99.90
10282;DHT22;5186;59.472;18.048;2022-10-16T04:54:29;13.40;99.90
10282;DHT22;5186;59.472;18.048;2022-10-16T04:56:54;13.50;99.90
10282;DHT22;5186;59.472;18.048;2022-10-16T04:59:21;13.40;99.90
10282;DHT22;5186;59.472;18.048;2022-10-16T05:01:47;13.40;99.90
10282;DHT22;5186;59.472;18.048;2022-10-16T05:04:13;13.40;99.90
10282;DHT22;5186;59.472;18.048;2022-10-16T05:06:40;13.40;99.90
10282;DHT22;5186;59.472;18.048;2022-10-16T05:09:06;13.40;99.90
10282;DHT22;5186;59.472;18.048;2022-10-16T05:11:32;13.40;99.90
10282;DHT22;5186;59.472;18.048;2022-10-16T05:13:58;13.40;99.90
10282;DHT22;5186;59.472;18.048;2022-10-16T05:16:23;13.40;99.90
10282;DHT22;5186;59.472;18.048;2022-10-16T05:18:49;13.30;99.90
10282;DHT22;5186;59.472;18.048;2022-10-16T05:21:16;13.30;99.90
10282;DHT22;5186;59.472;18.048;2022-10-16T05:23:41;13.40;99.90
10282;DHT22;5186;59.472;18.048;2022-10-16T05:26:07;13.30;99.90
10282;DHT22;5186;59.472;18.048;2022-10-16T05:28:33;13.30;99.90
10282;DHT22;5186;59.472;18.048;2022-10-16T05:30:59;13.30;99.90
10282;DHT22;5186;59.472;18.048;2022-10-16T05:33:25;13.30;99.90
10282;DHT22;5186;59.472;18.048;2022-10-16T05:35:51;13.30;99.90
10282;DHT22;5186;59.472;18.048;2022-10-16T05:38:17;13.30;99.90
10282;DHT22;5186;59.472;18.048;2022-10-16T05:40:43;13.20;99.90
10282;DHT22;5186;59.472;18.048;2022-10-16T05:43:15;13.30;99.90
10282;DHT22;5186;59.472;18.048;2022-10-16T05:45:41;13.20;99.90
10282;DHT22;5186;59.472;18.048;2022-10-16T05:48:06;13.20;99.90
10282;DHT22;5186;59.472;18.048;2022-10-16T05:50:32;13.20;99.90
10282;DHT22;5186;59.472;18.048;2022-10-16T05:52:57;13.30;99.90
10282;DHT22;5186;59.472;18.048;2022-10-16T05:55:23;13.30;99.90
10282;DHT22;5186;59.472;18.048;2022-10-16T05:57:48;13.20;99.90
10282;DHT22;5186;59.472;18.048;2022-10-16T06:00:14;13.20;99.90
10282;DHT22;5186;59.472;18.048;2022-10-16T06:02:39;13.20;99.90
10282;DHT22;5186;59.472;18.048;2022-10-16T06:05:05;13.20;99.90
10282;DHT22;5186;59.472;18.048;2022-10-16T06:07:34;13.20;99.90
10282;DHT22;5186;59.472;18.048;2022-10-16T06:10:00;13.20;99.90
10282;DHT22;5186;59.472;18.048;2022-10-16T06:12:26;13.20;99.90
10282;DHT22;5186;59.472;18.048;2022-10-16T06:14:52;13.30;99.90
10282;DHT22;5186;59.472;18.048;2022-10-16T06:17:18;13.30;99.90
10282;DHT22;5186;59.472;18.048;2022-10-16T06:19:43;13.30;99.90
10282;DHT22;5186;59.472;18.048;2022-10-16T06:22:09;13.30;99.90
10282;DHT22;5186;59.472;18.048;2022-10-16T06:24:35;13.30;99.90
10282;DHT22;5186;59.472;18.048;2022-10-16T06:27:00;13.40;99.90
10282;DHT22;5186;59.472;18.048;2022-10-16T06:29:26;13.30;99.90
10282;DHT22;5186;59.472;18.048;2022-10-16T06:31:51;13.30;99.90
10282;DHT22;5186;59.472;18.048;2022-10-16T06:34:18;13.30;99.90
10282;DHT22;5186;59.472;18.048;2022-10-16T06:36:44;13.30;99.90
10282;DHT22;5186;59.472;18.048;2022-10-16T06:39:09;13.40;99.90
10282;DHT22;5186;59.472;18.048;2022-10-16T06:41:35;13.40;99.90
10282;DHT22;5186;59.472;18.048;2022-10-16T06:44:04;13.40;99.90
10282;DHT22;5186;59.472;18.048;2022-10-16T06:46:30;13.40;99.90
10282;DHT22;5186;59.472;18.048;2022-10-16T06:48:56;13.40;99.90
10282;DHT22;5186;59.472;18.048;2022-10-16T06:51:23;13.40;99.90
10282;DHT22;5186;59.472;18.048;2022-10-16T06:53:51;13.40;99.90
10282;DHT22;5186;59.472;18.048;2022-10-16T06:58:44;13.50;99.90
10282;DHT22;5186;59.472;18.048;2022-10-16T07:01:10;13.50;99.90
10282;DHT22;5186;59.472;18.048;2022-10-16T07:03:38;13.50;99.90
10282;DHT22;5186;59.472;18.048;2022-10-16T07:06:05;13.50;99.90
10282;DHT22;5186;59.472;18.048;2022-10-16T07:08:35;13.50;99.90
10282;DHT22;5186;59.472;18.048;2022-10-16T07:11:12;13.60;99.90
10282;DHT22;5186;59.472;18.048;2022-10-16T07:13:40;13.60;99.90
10282;DHT22;5186;59.472;18.048;2022-10-16T07:16:17;13.60;99.90
10282;DHT22;5186;59.472;18.048;2022-10-16T07:18:43;13.60;99.90
10282;DHT22;5186;59.472;18.048;2022-10-16T07:21:19;13.60;99.90
10282;DHT22;5186;59.472;18.048;2022-10-16T07:23:50;13.60;99.90
10282;DHT22;5186;59.472;18.048;2022-10-16T07:26:15;13.60;99.90
10282;DHT22;5186;59.472;18.048;2022-10-16T07:28:42;13.60;99.90
10282;DHT22;5186;59.472;18.048;2022-10-16T07:31:10;13.70;99.90
10282;DHT22;5186;59.472;18.048;2022-10-16T07:33:37;13.70;99.90
10282;DHT22;5186;59.472;18.048;2022-10-16T07:36:04;13.70;99.90
10282;DHT22;5186;59.472;18.048;2022-10-16T07:38:29;13.80;99.90
10282;DHT22;5186;59.472;18.048;2022-10-16T07:40:59;13.80;99.90
10282;DHT22;5186;59.472;18.048;2022-10-16T07:43:26;13.80;99.90
10282;DHT22;5186;59.472;18.048;2022-10-16T07:45:52;13.80;99.90
10282;DHT22;5186;59.472;18.048;2022-10-16T07:48:18;13.80;99.90
10282;DHT22;5186;59.472;18.048;2022-10-16T07:50:45;13.80;99.90
10282;DHT22;5186;59.472;18.048;2022-10-16T07:53:11;13.90;99.90
10282;DHT22;5186;59.472;18.048;2022-10-16T07:55:37;13.90;99.90
10282;DHT22;5186;59.472;18.048;2022-10-16T07:58:03;13.90;99.90
10282;DHT22;5186;59.472;18.048;2022-10-16T08:00:29;13.90;99.90
10282;DHT22;5186;59.472;18.048;2022-10-16T08:02:57;14.00;99.90
10282;DHT22;5186;59.472;18.048;2022-10-16T08:05:29;14.00;99.90
10282;DHT22;5186;59.472;18.048;2022-10-16T08:07:55;14.00;99.90
10282;DHT22;5186;59.472;18.048;2022-10-16T08:10:22;14.00;99.90
10282;DHT22;5186;59.472;18.048;2022-10-16T08:12:49;14.00;99.90
10282;DHT22;5186;59.472;18.048;2022-10-16T08:15:14;14.00;99.90
10282;DHT22;5186;59.472;18.048;2022-10-16T08:17:40;13.90;99.90
10282;DHT22;5186;59.472;18.048;2022-10-16T08:20:06;13.90;99.90
10282;DHT22;5186;59.472;18.048;2022-10-16T08:22:32;13.90;99.90
10282;DHT22;5186;59.472;18.048;2022-10-16T08:24:57;13.90;99.90
10282;DHT22;5186;59.472;18.048;2022-10-16T08:27:23;13.90;99.90
10282;DHT22;5186;59.472;18.048;2022-10-16T08:29:49;13.90;99.90
10282;DHT22;5186;59.472;18.048;2022-10-16T08:32:15;13.90;99.90
10282;DHT22;5186;59.472;18.048;2022-10-16T08:34:41;13.90;99.90
10282;DHT22;5186;59.472;18.048;2022-10-16T08:37:06;14.00;99.90
10282;DHT22;5186;59.472;18.048;2022-10-16T08:39:33;13.90;99.90
10282;DHT22;5186;59.472;18.048;2022-10-16T08:44:52;14.00;99.90
10282;DHT22;5186;59.472;18.048;2022-10-16T08:47:24;14.10;99.90
10282;DHT22;5186;59.472;18.048;2022-10-16T08:50:00;14.10;99.90
10282;DHT22;5186;59.472;18.048;2022-10-16T08:52:32;14.10;99.90
10282;DHT22;5186;59.472;18.048;2022-10-16T08:54:59;14.10;99.90
10282;DHT22;5186;59.472;18.048;2022-10-16T08:57:26;14.10;99.90
10282;DHT22;5186;59.472;18.048;2022-10-16T08:59:53;14.10;99.90
10282;DHT22;5186;59.472;18.048;2022-10-16T09:02:40;14.10;99.90
10282;DHT22;5186;59.472;18.048;2022-10-16T09:05:29;14.10;99.90
10282;DHT22;5186;59.472;18.048;2022-10-16T09:19:04;14.20;99.90
10282;DHT22;5186;59.472;18.048;2022-10-16T09:21:31;14.20;99.90
10282;DHT22;5186;59.472;18.048;2022-10-16T09:24:00;14.10;99.90
10282;DHT22;5186;59.472;18.048;2022-10-16T09:26:30;14.10;99.90
10282;DHT22;5186;59.472;18.048;2022-10-16T09:28:55;14.20;99.90
10282;DHT22;5186;59.472;18.048;2022-10-16T09:31:22;14.20;99.90
10282;DHT22;5186;59.472;18.048;2022-10-16T09:34:00;14.20;99.90
10282;DHT22;5186;59.472;18.048;2022-10-16T09:36:39;14.20;99.90
10282;DHT22;5186;59.472;18.048;2022-10-16T09:39:09;14.20;99.90
10282;DHT22;5186;59.472;18.048;2022-10-16T09:41:36;14.30;99.90
10282;DHT22;5186;59.472;18.048;2022-10-16T09:44:04;14.20;99.90
10282;DHT22;5186;59.472;18.048;2022-10-16T09:46:34;14.20;99.90
10282;DHT22;5186;59.472;18.048;2022-10-16T09:49:02;14.20;99.90
10282;DHT22;5186;59.472;18.048;2022-10-16T09:51:31;14.20;99.90
10282;DHT22;5186;59.472;18.048;2022-10-16T09:54:11;14.20;99.90
10282;DHT22;5186;59.472;18.048;2022-10-16T09:56:38;14.20;99.90
10282;DHT22;5186;59.472;18.048;2022-10-16T09:59:15;14.20;99.90
10282;DHT22;5186;59.472;18.048;2022-10-16T10:01:44;14.20;99.90
10282;DHT22;5186;59.472;18.048;2022-10-16T10:04:11;14.30;99.90
10282;DHT22;5186;59.472;18.048;2022-10-16T10:06:44;14.20;99.90
10282;DHT22;5186;59.472;18.048;2022-10-16T10:11:49;14.20;99.90
10282;DHT22;5186;59.472;18.048;2022-10-16T10:14:34;14.30;99.90
10282;DHT22;5186;59.472;18.048;2022-10-16T10:17:21;14.20;99.90
10282;DHT22;5186;59.472;18.048;2022-10-16T10:19:59;14.20;99.90
10282;DHT22;5186;59.472;18.048;2022-10-16T10:22:44;14.20;99.90
10282;DHT22;5186;59.472;18.048;2022-10-16T10:30:25;14.30;99.90
10282;DHT22;5186;59.472;18.048;2022-10-16T10:38:50;14.30;99.90
10282;DHT22;5186;59.472;18.048;2022-10-16T10:47:14;14.20;99.90
10282;DHT22;5186;59.472;18.048;2022-10-16T10:55:31;14.20;99.90
10282;DHT22;5186;59.472;18.048;2022-10-16T11:06:45;14.30;99.90
10282;DHT22;5186;59.472;18.048;2022-10-16T11:09:22;14.40;99.90
10282;DHT22;5186;59.472;18.048;2022-10-16T11:14:20;14.50;99.90
10282;DHT22;5186;59.472;18.048;2022-10-16T11:17:13;14.40;99.90
10282;DHT22;5186;59.472;18.048;2022-10-16T11:19:59;14.50;99.90
10282;DHT22;5186;59.472;18.048;2022-10-16T11:22:30;14.50;99.90
10282;DHT22;5186;59.472;18.048;2022-10-16T11:30:33;14.60;99.90
10282;DHT22;5186;59.472;18.048;2022-10-16T11:38:38;14.70;99.90
10282;DHT22;5186;59.472;18.048;2022-10-16T11:44:18;14.80;99.90
10282;DHT22;5186;59.472;18.048;2022-10-16T11:47:42;14.80;99.90
10282;DHT22;5186;59.472;18.048;2022-10-16T11:49:51;14.80;99.90
10282;DHT22;5186;59.472;18.048;2022-10-16T11:57:31;14.90;99.90
10282;DHT22;5186;59.472;18.048;2022-10-16T12:00:09;15.00;99.90
10282;DHT22;5186;59.472;18.048;2022-10-16T12:02:47;15.00;99.90
10282;DHT22;5186;59.472;18.048;2022-10-16T12:10:31;15.10;99.90
10282;DHT22;5186;59.472;18.048;2022-10-16T12:16:04;15.10;99.90
10282;DHT22;5186;59.472;18.048;2022-10-16T12:18:30;15.20;99.90
10282;DHT22;5186;59.472;18.048;2022-10-16T12:20:57;15.20;99.90
10282;DHT22;5186;59.472;18.048;2022-10-16T12:23:24;15.20;99.90
10282;DHT22;5186;59.472;18.048;2022-10-16T12:25:58;15.20;99.90
10282;DHT22;5186;59.472;18.048;2022-10-16T12:28:29;15.30;99.90
10282;DHT22;5186;59.472;18.048;2022-10-16T12:31:01;15.20;99.90
10282;DHT22;5186;59.472;18.048;2022-10-16T12:33:42;15.20;99.90
10282;DHT22;5186;59.472;18.048;2022-10-16T12:36:26;15.20;99.90
10282;DHT22;5186;59.472;18.048;2022-10-16T12:38:53;15.10;99.90
10282;DHT22;5186;59.472;18.048;2022-10-16T12:41:32;15.20;99.90
10282;DHT22;5186;59.472;18.048;2022-10-16T12:43:59;15.20;99.90
10282;DHT22;5186;59.472;18.048;2022-10-16T12:51:42;15.20;99.90
10282;DHT22;5186;59.472;18.048;2022-10-16T12:54:14;15.30;99.90
10282;DHT22;5186;59.472;18.048;2022-10-16T13:08:46;15.30;99.90
10282;DHT22;5186;59.472;18.048;2022-10-16T13:27:55;15.30;99.90
10282;DHT22;5186;59.472;18.048;2022-10-16T13:30:27;15.40;99.90
10282;DHT22;5186;59.472;18.048;2022-10-16T13:33:47;15.40;99.90
10282;DHT22;5186;59.472;18.048;2022-10-16T13:35:55;15.40;99.90
10282;DHT22;5186;59.472;18.048;2022-10-16T13:38:23;15.40;99.90
10282;DHT22;5186;59.472;18.048;2022-10-16T13:40:51;15.30;99.90
10282;DHT22;5186;59.472;18.048;2022-10-16T13:43:19;15.30;99.90
10282;DHT22;5186;59.472;18.048;2022-10-16T13:45:57;15.30;99.90
10282;DHT22;5186;59.472;18.048;2022-10-16T13:48:23;15.30;99.90
10282;DHT22;5186;59.472;18.048;2022-10-16T13:51:05;15.20;99.90
10282;DHT22;5186;59.472;18.048;2022-10-16T13:53:32;15.20;99.90
10282;DHT22;5186;59.472;18.048;2022-10-16T13:55:58;15.20;99.90
10282;DHT22;5186;59.472;18.048;2022-10-16T13:58:25;15.20;99.90
10282;DHT22;5186;59.472;18.048;2022-10-16T14:00:57;15.20;99.90
10282;DHT22;5186;59.472;18.048;2022-10-16T14:03:24;15.20;99.90
10282;DHT22;5186;59.472;18.048;2022-10-16T14:05:52;15.10;99.90
10282;DHT22;5186;59.472;18.048;2022-10-16T14:08:19;15.00;99.90
10282;DHT22;5186;59.472;18.048;2022-10-16T14:10:49;14.70;99.90
10282;DHT22;5186;59.472;18.048;2022-10-16T14:13:19;14.60;99.90
10282;DHT22;5186;59.472;18.048;2022-10-16T14:15:49;14.50;99.90
10282;DHT22;5186;59.472;18.048;2022-10-16T14:18:22;14.40;99.90
10282;DHT22;5186;59.472;18.048;2022-10-16T14:20:49;14.40;99.90
10282;DHT22;5186;59.472;18.048;2022-10-16T14:23:30;14.40;99.90
10282;DHT22;5186;59.472;18.048;2022-10-16T14:28:34;14.30;99.90
10282;DHT22;5186;59.472;18.048;2022-10-16T14:31:02;14.20;99.90
10282;DHT22;5186;59.472;18.048;2022-10-16T14:36:20;14.20;99.90
10282;DHT22;5186;59.472;18.048;2022-10-16T14:39:05;14.10;99.90
10282;DHT22;5186;59.472;18.048;2022-10-16T14:41:35;14.00;99.90
10282;DHT22;5186;59.472;18.048;2022-10-16T14:44:06;14.00;99.90
10282;DHT22;5186;59.472;18.048;2022-10-16T14:46:41;13.90;99.90
10282;DHT22;5186;59.472;18.048;2022-10-16T14:51:38;13.80;99.90
10282;DHT22;5186;59.472;18.048;2022-10-16T14:54:08;13.80;99.90
10282;DHT22;5186;59.472;18.048;2022-10-16T14:59:13;13.80;99.90
10282;DHT22;5186;59.472;18.048;2022-10-16T15:01:39;13.80;99.90
10282;DHT22;5186;59.472;18.048;2022-10-16T15:04:08;13.70;99.90
10282;DHT22;5186;59.472;18.048;2022-10-16T15:06:34;13.70;99.90
10282;DHT22;5186;59.472;18.048;2022-10-16T15:09:00;13.70;99.90
10282;DHT22;5186;59.472;18.048;2022-10-16T15:11:25;13.70;99.90
10282;DHT22;5186;59.472;18.048;2022-10-16T15:13:51;13.80;99.90
10282;DHT22;5186;59.472;18.048;2022-10-16T15:16:16;13.70;99.90
10282;DHT22;5186;59.472;18.048;2022-10-16T15:18:43;13.70;99.90
10282;DHT22;5186;59.472;18.048;2022-10-16T15:21:46;13.70;99.90
10282;DHT22;5186;59.472;18.048;2022-10-16T15:24:09;13.70;99.90
10282;DHT22;5186;59.472;18.048;2022-10-16T15:26:36;13.60;99.90
10282;DHT22;5186;59.472;18.048;2022-10-16T15:29:02;13.60;99.90
10282;DHT22;5186;59.472;18.048;2022-10-16T15:31:27;13.60;99.90
10282;DHT22;5186;59.472;18.048;2022-10-16T15:33:54;13.50;99.90
10282;DHT22;5186;59.472;18.048;2022-10-16T15:36:28;13.40;99.90
10282;DHT22;5186;59.472;18.048;2022-10-16T15:38:53;13.20;99.90
10282;DHT22;5186;59.472;18.048;2022-10-16T15:41:20;13.20;99.90
10282;DHT22;5186;59.472;18.048;2022-10-16T15:43:48;13.20;99.90
10282;DHT22;5186;59.472;18.048;2022-10-16T15:46:15;13.20;99.90
10282;DHT22;5186;59.472;18.048;2022-10-16T15:48:42;13.10;99.90
10282;DHT22;5186;59.472;18.048;2022-10-16T15:51:08;13.10;99.90
10282;DHT22;5186;59.472;18.048;2022-10-16T15:53:34;13.00;99.90
10282;DHT22;5186;59.472;18.048;2022-10-16T15:56:05;12.90;99.90
10282;DHT22;5186;59.472;18.048;2022-10-16T15:58:31;12.80;99.90
10282;DHT22;5186;59.472;18.048;2022-10-16T16:00:58;12.80;99.90
10282;DHT22;5186;59.472;18.048;2022-10-16T16:03:26;12.60;99.90
10282;DHT22;5186;59.472;18.048;2022-10-16T16:05:52;12.60;99.90
10282;DHT22;5186;59.472;18.048;2022-10-16T16:08:18;12.50;99.90
10282;DHT22;5186;59.472;18.048;2022-10-16T16:10:43;12.50;99.90
10282;DHT22;5186;59.472;18.048;2022-10-16T16:13:09;12.50;99.90
10282;DHT22;5186;59.472;18.048;2022-10-16T16:15:38;12.40;99.90
10282;DHT22;5186;59.472;18.048;2022-10-16T16:18:04;12.40;99.90
10282;DHT22;5186;59.472;18.048;2022-10-16T16:20:31;12.40;99.90
10282;DHT22;5186;59.472;18.048;2022-10-16T16:22:57;12.30;99.90
10282;DHT22;5186;59.472;18.048;2022-10-16T16:25:22;12.40;99.90
10282;DHT22;5186;59.472;18.048;2022-10-16T16:27:48;12.30;99.90
10282;DHT22;5186;59.472;18.048;2022-10-16T16:30:14;12.30;99.90
10282;DHT22;5186;59.472;18.048;2022-10-16T16:32:39;12.10;99.90
10282;DHT22;5186;59.472;18.048;2022-10-16T16:35:05;12.20;99.90
10282;DHT22;5186;59.472;18.048;2022-10-16T16:37:31;12.10;99.90
10282;DHT22;5186;59.472;18.048;2022-10-16T16:39:57;12.10;99.90
10282;DHT22;5186;59.472;18.048;2022-10-16T16:42:26;12.10;99.90
10282;DHT22;5186;59.472;18.048;2022-10-16T16:44:52;12.00;99.90
10282;DHT22;5186;59.472;18.048;2022-10-16T16:47:18;12.00;99.90
10282;DHT22;5186;59.472;18.048;2022-10-16T16:49:44;11.90;99.90
10282;DHT22;5186;59.472;18.048;2022-10-16T16:52:12;11.80;99.90
10282;DHT22;5186;59.472;18.048;2022-10-16T16:54:38;11.80;99.90
10282;DHT22;5186;59.472;18.048;2022-10-16T16:57:04;11.70;99.90
10282;DHT22;5186;59.472;18.048;2022-10-16T16:59:30;11.70;99.90
10282;DHT22;5186;59.472;18.048;2022-10-16T17:01:58;11.70;99.90
10282;DHT22;5186;59.472;18.048;2022-10-16T17:04:25;11.60;99.90
10282;DHT22;5186;59.472;18.048;2022-10-16T17:06:53;11.60;99.90
10282;DHT22;5186;59.472;18.048;2022-10-16T17:09:18;11.50;99.90
10282;DHT22;5186;59.472;18.048;2022-10-16T17:11:44;11.50;99.90
10282;DHT22;5186;59.472;18.048;2022-10-16T17:14:11;11.40;99.90
10282;DHT22;5186;59.472;18.048;2022-10-16T17:16:38;11.40;99.90
10282;DHT22;5186;59.472;18.048;2022-10-16T17:19:06;11.40;99.90
10282;DHT22;5186;59.472;18.048;2022-10-16T17:21:34;11.40;99.90
10282;DHT22;5186;59.472;18.048;2022-10-16T17:24:00;11.40;99.90
10282;DHT22;5186;59.472;18.048;2022-10-16T17:26:26;11.30;99.90
10282;DHT22;5186;59.472;18.048;2022-10-16T17:28:53;11.30;99.90
10282;DHT22;5186;59.472;18.048;2022-10-16T17:31:28;11.20;99.90
10282;DHT22;5186;59.472;18.048;2022-10-16T17:33:54;11.20;99.90
10282;DHT22;5186;59.472;18.048;2022-10-16T17:36:21;11.30;99.90
10282;DHT22;5186;59.472;18.048;2022-10-16T17:38:47;11.20;99.90
10282;DHT22;5186;59.472;18.048;2022-10-16T17:43:40;11.10;99.90
10282;DHT22;5186;59.472;18.048;2022-10-16T17:46:07;11.10;99.90
10282;DHT22;5186;59.472;18.048;2022-10-16T17:48:41;11.10;99.90
10282;DHT22;5186;59.472;18.048;2022-10-16T17:51:08;11.10;99.90
10282;DHT22;5186;59.472;18.048;2022-10-16T17:53:35;11.00;99.90
10282;DHT22;5186;59.472;18.048;2022-10-16T17:56:09;11.00;99.90
10282;DHT22;5186;59.472;18.048;2022-10-16T17:58:35;10.90;99.90